Time;durP1;ratioP1;P1;durP2;ratioP2;P2;SDS_P1;SDS_P2;PMS_P1;PMS_P2;Temp;Humidity;BMP_temperature;BMP_pressure;BME280_temperature;BME280_humidity;BME280_pressure;Samples;Min_cycle;Max_cycle;Signal;HPM_P1;HPM_P2
2023/01/30 00:01:06;;;;;;;8.05;0.95;;;20.40;52.60;;;;;;5095564;28;20090;-68
2023/01/30 00:03:33;;;;;;;19.17;1.65;;;20.30;53.00;;;;;;5095391;28;20518;-65
2023/01/30 00:05:59;;;;;;;29.08;2.28;;;20.00;53.70;;;;;;5096246;28;20064;-67
2023/01/30 00:08:26;;;;;;;7.28;1.58;;;20.00;54.50;;;;;;5093685;28;20050;-65
2023/01/30 00:10:52;;;;;;;7.35;1.25;;;19.90;54.80;;;;;;5097695;28;20082;-66
2023/01/30 00:13:18;;;;;;;5.05;1.50;;;19.90;55.20;;;;;;5095337;28;20700;-66
2023/01/30 00:15:46;;;;;;;9.95;1.85;;;19.90;55.30;;;;;;5091989;28;20046;-65
2023/01/30 00:18:13;;;;;;;8.63;1.50;;;19.90;54.90;;;;;;5098908;28;20642;-65
2023/01/30 00:20:39;;;;;;;18.45;2.00;;;19.90;54.50;;;;;;5095334;28;20094;-66
2023/01/30 00:23:05;;;;;;;22.02;2.67;;;19.70;54.80;;;;;;5088859;28;20068;-63
2023/01/30 00:25:32;;;;;;;11.35;1.80;;;19.50;54.50;;;;;;5093580;28;20043;-64
2023/01/30 00:28:00;;;;;;;5.63;1.17;;;19.40;54.80;;;;;;5092278;28;20047;-66
2023/01/30 00:30:27;;;;;;;12.18;1.80;;;19.40;54.70;;;;;;5097225;28;20068;-64
2023/01/30 00:32:55;;;;;;;14.52;1.60;;;19.30;54.70;;;;;;5098605;28;20045;-67
2023/01/30 00:35:27;;;;;;;14.13;2.30;;;19.10;55.00;;;;;;5105145;28;20519;-66
2023/01/30 00:37:58;;;;;;;11.25;2.53;;;18.90;55.30;;;;;;5097419;28;20043;-65
2023/01/30 00:40:26;;;;;;;14.70;2.92;;;18.90;55.70;;;;;;5093667;28;20516;-65
2023/01/30 00:48:24;;;;;;;14.10;3.08;;;18.30;57.70;;;;;;5098618;28;20578;-66
2023/01/30 00:50:51;;;;;;;10.50;2.50;;;18.20;58.00;;;;;;5103798;28;20081;-65
2023/01/30 00:53:17;;;;;;;7.22;2.10;;;18.10;58.20;;;;;;5100063;28;20059;-63
2023/01/30 00:55:44;;;;;;;13.23;2.45;;;17.90;58.40;;;;;;5099200;28;20111;-66
2023/01/30 00:58:12;;;;;;;14.65;2.58;;;17.90;58.50;;;;;;5096281;28;20157;-65
2023/01/30 01:00:39;;;;;;;9.63;2.53;;;17.70;58.60;;;;;;5098844;28;20129;-65
2023/01/30 01:03:05;;;;;;;31.55;10.52;;;17.70;58.90;;;;;;5095909;28;20154;-65
2023/01/30 01:05:32;;;;;;;31.58;14.90;;;17.60;59.20;;;;;;5091609;28;20487;-66
2023/01/30 01:07:58;;;;;;;29.65;12.15;;;17.60;59.30;;;;;;5095877;28;20232;-64
2023/01/30 01:10:24;;;;;;;30.48;10.93;;;17.50;59.20;;;;;;5092292;28;20062;-66
2023/01/30 01:12:51;;;;;;;9.35;2.60;;;17.40;59.30;;;;;;5096796;28;20054;-66
2023/01/30 01:15:19;;;;;;;13.60;2.40;;;17.40;59.60;;;;;;5103373;28;20514;-65
2023/01/30 01:17:46;;;;;;;13.13;2.95;;;17.40;59.90;;;;;;5099180;28;20153;-65
2023/01/30 01:20:13;;;;;;;14.43;2.22;;;17.20;60.00;;;;;;5092570;28;20067;-63
2023/01/30 01:22:40;;;;;;;11.02;2.67;;;17.10;59.90;;;;;;5099367;28;20113;-65
2023/01/30 01:25:08;;;;;;;17.77;3.20;;;17.10;60.30;;;;;;5101035;28;20057;-66
2023/01/30 01:27:34;;;;;;;15.40;3.15;;;17.00;60.60;;;;;;5097911;28;20092;-64
2023/01/30 01:30:00;;;;;;;10.85;2.70;;;17.00;60.90;;;;;;5094632;28;20081;-63
2023/01/30 01:32:27;;;;;;;8.48;2.25;;;17.00;60.80;;;;;;5097259;28;20065;-65
2023/01/30 01:34:53;;;;;;;11.45;2.80;;;16.90;60.60;;;;;;5103192;27;20075;-66
2023/01/30 01:37:20;;;;;;;9.32;2.75;;;16.90;60.80;;;;;;5093317;28;20087;-68
2023/01/30 01:42:34;;;;;;;9.00;2.67;;;16.80;60.90;;;;;;5092336;28;20529;-64
2023/01/30 01:45:16;;;;;;;9.40;2.58;;;16.70;60.80;;;;;;5094369;28;20062;-65
2023/01/30 01:47:45;;;;;;;10.82;2.63;;;16.70;61.00;;;;;;5095910;28;20070;-64
2023/01/30 01:50:43;;;;;;;14.70;3.10;;;16.60;61.10;;;;;;5094226;28;20074;-64
2023/01/30 01:53:13;;;;;;;12.10;2.92;;;16.60;61.80;;;;;;5097376;28;20079;-65
2023/01/30 01:55:42;;;;;;;9.20;3.30;;;16.50;61.30;;;;;;5091902;28;20080;-64
2023/01/30 01:58:14;;;;;;;11.57;4.20;;;16.50;61.30;;;;;;5087618;28;20604;-65
2023/01/30 02:00:40;;;;;;;21.50;5.05;;;16.50;61.50;;;;;;5092681;28;20148;-68
2023/01/30 02:03:13;;;;;;;24.73;5.18;;;16.50;61.50;;;;;;5096645;28;20074;-67
2023/01/30 02:05:44;;;;;;;14.80;4.22;;;16.40;61.30;;;;;;5101069;28;20058;-69
2023/01/30 02:08:12;;;;;;;10.65;4.65;;;16.30;61.60;;;;;;5096765;28;20167;-69
2023/01/30 02:10:45;;;;;;;11.77;3.83;;;16.30;61.60;;;;;;5102501;28;20053;-66
2023/01/30 02:13:11;;;;;;;10.43;3.75;;;16.30;61.70;;;;;;5098909;28;20148;-65
2023/01/30 02:15:38;;;;;;;14.13;3.83;;;16.30;62.00;;;;;;5096621;28;20110;-67
2023/01/30 02:18:04;;;;;;;15.38;3.13;;;16.20;62.30;;;;;;5098077;28;20054;-68
2023/01/30 02:20:50;;;;;;;9.68;2.72;;;16.10;62.50;;;;;;5097606;28;20126;-67
2023/01/30 02:23:49;;;;;;;10.73;2.78;;;16.10;63.20;;;;;;5099887;28;20075;-64
2023/01/30 02:26:45;;;;;;;9.00;2.67;;;16.00;64.10;;;;;;5099139;28;20414;-63
2023/01/30 02:29:35;;;;;;;10.23;3.33;;;16.00;65.20;;;;;;5096499;28;20544;-67
2023/01/30 02:32:39;;;;;;;9.98;2.88;;;15.80;65.80;;;;;;5102029;28;20074;-65
2023/01/30 02:35:20;;;;;;;12.55;3.30;;;15.80;66.70;;;;;;4989581;28;20073;-65
2023/01/30 02:38:24;;;;;;;9.68;2.97;;;15.70;67.30;;;;;;5094593;28;20072;-67
2023/01/30 02:41:18;;;;;;;15.27;3.38;;;15.70;67.30;;;;;;5092456;28;20139;-64
2023/01/30 02:43:57;;;;;;;12.05;3.22;;;15.70;67.40;;;;;;5090823;28;20112;-67
2023/01/30 02:46:32;;;;;;;13.93;3.95;;;15.60;67.30;;;;;;5096342;28;20064;-67
2023/01/30 02:49:15;;;;;;;8.50;2.83;;;15.60;67.20;;;;;;5089568;28;20436;-67
2023/01/30 02:51:43;;;;;;;12.27;2.80;;;15.60;67.90;;;;;;5090945;28;20479;-66
2023/01/30 02:54:13;;;;;;;10.45;3.40;;;15.60;67.40;;;;;;5099183;28;20064;-65
2023/01/30 02:56:52;;;;;;;7.80;2.65;;;15.50;67.20;;;;;;5093247;28;20072;-66
2023/01/30 02:59:27;;;;;;;19.70;3.08;;;15.50;67.30;;;;;;5096899;28;20074;-67
2023/01/30 03:02:21;;;;;;;11.20;3.17;;;15.40;67.30;;;;;;5097740;28;20064;-66
2023/01/30 03:05:01;;;;;;;11.15;3.55;;;15.40;67.70;;;;;;5097519;28;20104;-67
2023/01/30 03:07:49;;;;;;;12.15;3.42;;;15.40;68.30;;;;;;5098533;28;20065;-64
2023/01/30 03:10:32;;;;;;;11.05;3.53;;;15.30;68.80;;;;;;5099246;28;20068;-67
2023/01/30 03:13:18;;;;;;;12.88;4.30;;;15.30;69.30;;;;;;5097336;28;20148;-66
2023/01/30 03:16:15;;;;;;;19.67;6.03;;;15.20;69.80;;;;;;5098741;28;20066;-67
2023/01/30 03:18:42;;;;;;;13.57;3.78;;;15.20;70.30;;;;;;5096849;28;20097;-65
2023/01/30 03:21:10;;;;;;;11.30;3.35;;;15.10;71.10;;;;;;5099720;28;20530;-64
2023/01/30 03:23:36;;;;;;;10.50;3.50;;;15.10;71.90;;;;;;5100722;28;20087;-66
2023/01/30 03:26:10;;;;;;;9.82;3.00;;;15.00;72.70;;;;;;5094484;28;20086;-66
2023/01/30 03:28:37;;;;;;;11.25;3.08;;;15.00;73.40;;;;;;5096562;28;20078;-67
2023/01/30 03:31:03;;;;;;;14.77;3.15;;;14.90;73.80;;;;;;5091824;28;20608;-67
2023/01/30 03:33:30;;;;;;;10.77;3.25;;;14.90;74.20;;;;;;5100874;28;20192;-65
2023/01/30 03:35:56;;;;;;;;;;;14.90;74.70;;;;;;5094800;28;20516;-66
2023/01/30 03:38:22;;;;;;;12.75;3.30;;;14.80;75.10;;;;;;5096476;28;20035;-66
2023/01/30 03:40:49;;;;;;;13.65;3.17;;;14.80;75.60;;;;;;5096463;28;20070;-67
2023/01/30 03:43:15;;;;;;;13.55;3.47;;;14.70;76.10;;;;;;5097645;28;20623;-64
2023/01/30 03:45:41;;;;;;;;;;;14.70;76.40;;;;;;5091684;28;20153;-67
2023/01/30 03:48:09;;;;;;;13.85;3.53;;;14.70;76.90;;;;;;5099436;28;20475;-67
2023/01/30 03:50:35;;;;;;;15.57;3.97;;;14.70;77.20;;;;;;5094274;28;20108;-67
2023/01/30 03:53:01;;;;;;;;;;;14.60;78.30;;;;;;5098159;28;20075;-65
2023/01/30 03:55:28;;;;;;;12.98;4.60;;;14.60;78.00;;;;;;5094838;28;19951;-65
2023/01/30 03:57:55;;;;;;;;;;;14.50;78.30;;;;;;5098624;28;20441;-67
2023/01/30 04:00:21;;;;;;;11.43;2.95;;;14.40;78.80;;;;;;5094870;28;19962;-64
2023/01/30 04:02:48;;;;;;;13.32;3.17;;;14.40;79.30;;;;;;5095314;28;20088;-65
2023/01/30 04:05:14;;;;;;;;;;;14.50;79.60;;;;;;5102709;28;20089;-66
2023/01/30 04:07:40;;;;;;;16.40;3.95;;;14.40;79.80;;;;;;5097078;28;19951;-67
2023/01/30 04:10:07;;;;;;;14.70;3.30;;;14.40;80.10;;;;;;5099111;28;20068;-65
2023/01/30 04:12:33;;;;;;;24.13;3.75;;;14.40;80.60;;;;;;5100711;28;20072;-67
2023/01/30 04:14:59;;;;;;;;;;;14.40;80.60;;;;;;5103065;28;20425;-68
2023/01/30 04:17:26;;;;;;;12.20;3.05;;;14.40;80.90;;;;;;5102267;28;20430;-66
2023/01/30 04:19:52;;;;;;;;;;;14.30;81.20;;;;;;5100480;28;20073;-65
2023/01/30 04:22:18;;;;;;;12.98;3.40;;;14.30;81.50;;;;;;5095992;28;19951;-68
2023/01/30 04:24:44;;;;;;;;;;;14.30;82.00;;;;;;5100482;28;20103;-68
2023/01/30 04:27:11;;;;;;;16.67;4.07;;;14.20;82.10;;;;;;5103745;28;19993;-66
2023/01/30 04:29:37;;;;;;;;;;;14.20;82.70;;;;;;5102229;28;20110;-65
2023/01/30 04:32:03;;;;;;;10.68;3.45;;;14.20;82.50;;;;;;5099314;28;20053;-67
2023/01/30 04:34:32;;;;;;;10.70;3.60;;;14.20;82.10;;;;;;5097669;28;20434;-69
2023/01/30 04:36:59;;;;;;;19.00;4.10;;;14.10;82.30;;;;;;5098995;28;20098;-68
2023/01/30 04:39:25;;;;;;;;;;;14.10;82.50;;;;;;5099826;28;20069;-71
2023/01/30 04:41:51;;;;;;;18.85;4.10;;;14.00;82.40;;;;;;5097171;28;19948;-66
2023/01/30 04:44:17;;;;;;;;;;;14.00;82.50;;;;;;5097970;28;20133;-65
2023/01/30 04:46:44;;;;;;;18.45;4.25;;;14.00;82.60;;;;;;5092446;28;20451;-66
2023/01/30 04:49:10;;;;;;;;;;;14.00;82.90;;;;;;5104234;28;20070;-67
2023/01/30 04:51:36;;;;;;;15.82;4.13;;;14.00;82.60;;;;;;5097947;28;20421;-66
2023/01/30 04:54:02;;;;;;;;;;;14.00;82.90;;;;;;5099953;28;20074;-67
2023/01/30 04:56:29;;;;;;;12.93;3.63;;;13.90;82.70;;;;;;5103907;28;19971;-68
2023/01/30 04:58:55;;;;;;;;;;;13.80;84.00;;;;;;5104064;28;20391;-66
2023/01/30 05:01:34;;;;;;;17.27;3.67;;;13.80;83.60;;;;;;5098701;28;20062;-67
2023/01/30 05:04:01;;;;;;;15.63;4.70;;;13.80;83.90;;;;;;5101676;28;20172;-67
2023/01/30 05:06:28;;;;;;;14.82;3.75;;;13.70;83.90;;;;;;5095545;28;20131;-69
2023/01/30 05:08:55;;;;;;;22.02;4.18;;;13.70;83.70;;;;;;5099687;28;20433;-66
2023/01/30 05:11:23;;;;;;;12.50;3.58;;;13.60;83.80;;;;;;5101658;28;20132;-67
2023/01/30 05:13:50;;;;;;;17.83;3.60;;;13.60;84.00;;;;;;5101614;28;20080;-67
2023/01/30 05:16:18;;;;;;;15.80;3.65;;;13.60;84.10;;;;;;5096704;27;20061;-65
2023/01/30 05:18:45;;;;;;;15.88;3.85;;;13.50;84.80;;;;;;5101156;28;20157;-67
2023/01/30 05:21:24;;;;;;;11.48;3.70;;;13.50;85.10;;;;;;5101613;28;20064;-64
2023/01/30 05:23:52;;;;;;;19.00;4.00;;;13.40;85.30;;;;;;5099888;28;20120;-66
2023/01/30 05:26:18;;;;;;;15.32;3.85;;;13.30;86.00;;;;;;5101639;28;20084;-68
2023/01/30 05:28:51;;;;;;;17.23;3.97;;;13.10;85.80;;;;;;5097349;28;20099;-67
2023/01/30 05:31:17;;;;;;;11.55;3.60;;;13.10;86.40;;;;;;5099517;28;20065;-67
2023/01/30 05:33:47;;;;;;;17.23;4.13;;;13.10;87.00;;;;;;5102171;28;21646;-68
2023/01/30 05:36:16;;;;;;;19.90;4.10;;;13.10;87.00;;;;;;5098636;28;20151;-68
2023/01/30 05:38:44;;;;;;;15.85;4.15;;;13.00;87.60;;;;;;5098703;28;21467;-68
2023/01/30 05:41:12;;;;;;;11.40;3.92;;;13.00;88.00;;;;;;5106641;28;20094;-68
2023/01/30 05:43:38;;;;;;;20.45;6.85;;;12.80;87.70;;;;;;5095283;28;20186;-69
2023/01/30 05:46:06;;;;;;;24.13;6.97;;;12.90;88.50;;;;;;5091663;28;20064;-70
2023/01/30 05:48:33;;;;;;;23.52;6.95;;;12.90;88.20;;;;;;5098064;28;20087;-67
2023/01/30 05:50:59;;;;;;;13.07;6.00;;;12.90;88.40;;;;;;5098810;28;20069;-67
2023/01/30 05:53:33;;;;;;;16.73;5.88;;;12.80;89.20;;;;;;5100599;28;20117;-70
2023/01/30 05:56:03;;;;;;;24.25;5.85;;;12.70;89.40;;;;;;5105738;28;20460;-68
2023/01/30 05:58:30;;;;;;;20.30;7.07;;;12.70;89.20;;;;;;5098918;28;20064;-69
2023/01/30 06:01:05;;;;;;;23.40;7.88;;;12.50;89.70;;;;;;5098466;28;20154;-71
2023/01/30 06:03:32;;;;;;;23.65;8.18;;;12.50;90.20;;;;;;5096574;28;20631;-69
2023/01/30 06:06:00;;;;;;;23.73;8.38;;;12.50;90.40;;;;;;5096753;28;20104;-64
2023/01/30 06:08:26;;;;;;;30.23;9.57;;;12.50;90.70;;;;;;5089837;28;22171;-69
2023/01/30 06:10:53;;;;;;;21.77;9.32;;;12.50;90.80;;;;;;5095062;28;20079;-63
2023/01/30 06:13:19;;;;;;;;;;;12.50;90.80;;;;;;5100424;28;20099;-66
2023/01/30 06:15:45;;;;;;;29.52;9.45;;;12.50;91.10;;;;;;5096146;28;19969;-66
2023/01/30 06:18:12;;;;;;;25.85;7.68;;;12.50;91.10;;;;;;5094128;27;20148;-67
2023/01/30 06:20:38;;;;;;;;;;;12.40;91.00;;;;;;5098574;28;20562;-64
2023/01/30 06:23:04;;;;;;;22.67;7.85;;;12.30;91.20;;;;;;5095124;28;20432;-65
2023/01/30 06:25:30;;;;;;;;;;;12.30;91.70;;;;;;5093821;28;20077;-64
2023/01/30 06:27:56;;;;;;;26.23;8.35;;;12.30;91.60;;;;;;5092802;28;19956;-66
2023/01/30 06:30:22;;;;;;;;;;;12.20;91.50;;;;;;5097506;28;20065;-63
2023/01/30 06:32:52;;;;;;;21.73;8.30;;;12.20;91.90;;;;;;5097536;28;19953;-65
2023/01/30 06:35:18;;;;;;;26.15;8.20;;;12.20;92.00;;;;;;5097029;28;20100;-65
2023/01/30 06:37:44;;;;;;;;;;;12.20;92.60;;;;;;5092401;28;20509;-65
2023/01/30 06:40:12;;;;;;;24.20;9.88;;;12.10;92.20;;;;;;5096810;28;19958;-64
2023/01/30 06:42:42;;;;;;;29.15;9.88;;;12.00;92.10;;;;;;5099159;28;20157;-65
2023/01/30 06:45:09;;;;;;;34.10;10.27;;;12.00;92.30;;;;;;5093166;28;20087;-65
2023/01/30 06:47:47;;;;;;;33.03;10.15;;;12.00;92.40;;;;;;5089950;28;20440;-63
2023/01/30 06:50:14;;;;;;;36.67;10.60;;;12.00;92.50;;;;;;5099507;28;20376;-63
2023/01/30 06:52:42;;;;;;;29.35;13.73;;;12.10;92.80;;;;;;5098311;28;20064;-64
2023/01/30 06:55:10;;;;;;;35.90;14.63;;;12.00;92.70;;;;;;5103854;28;20125;-64
2023/01/30 06:57:36;;;;;;;33.63;10.35;;;12.00;92.70;;;;;;5096699;28;20525;-61
2023/01/30 07:00:03;;;;;;;;;;;12.00;92.70;;;;;;5097328;28;20122;-65
2023/01/30 07:02:33;;;;;;;30.73;8.98;;;12.00;92.70;;;;;;5097197;28;19967;-65
2023/01/30 07:05:01;;;;;;;33.70;9.55;;;12.00;93.10;;;;;;5094036;28;20076;-65
2023/01/30 07:07:28;;;;;;;23.75;9.65;;;12.00;93.10;;;;;;5094091;28;20088;-64
2023/01/30 07:09:55;;;;;;;33.03;10.57;;;11.90;93.00;;;;;;5094610;28;20140;-63
2023/01/30 07:12:21;;;;;;;32.15;10.48;;;11.90;93.30;;;;;;5097811;28;20072;-64
2023/01/30 07:14:48;;;;;;;39.70;12.23;;;11.90;93.20;;;;;;5096544;28;20479;-64
2023/01/30 07:17:14;;;;;;;;;;;11.80;93.40;;;;;;5092707;28;20069;-62
2023/01/30 07:19:42;;;;;;;31.75;11.52;;;11.80;93.70;;;;;;5090828;28;20357;-63
2023/01/30 07:22:08;;;;;;;34.97;12.65;;;11.70;93.90;;;;;;5100638;28;20117;-66
2023/01/30 07:24:34;;;;;;;;;;;11.60;94.30;;;;;;5098152;28;20126;-64
2023/01/30 07:27:01;;;;;;;37.30;12.13;;;11.50;94.30;;;;;;5095208;28;19990;-62
2023/01/30 07:29:27;;;;;;;35.60;11.13;;;11.50;94.60;;;;;;5098467;28;20103;-66
2023/01/30 07:31:54;;;;;;;38.92;11.93;;;11.50;94.60;;;;;;5101212;28;20083;-62
2023/01/30 07:34:20;;;;;;;;;;;11.50;94.70;;;;;;5093394;28;20482;-63
2023/01/30 07:36:46;;;;;;;53.50;14.55;;;11.40;95.00;;;;;;5095289;28;20476;-63
2023/01/30 07:39:12;;;;;;;;;;;11.40;95.10;;;;;;5093048;28;20072;-64
2023/01/30 07:41:38;;;;;;;55.95;16.73;;;11.30;95.30;;;;;;5092732;28;20447;-65
2023/01/30 07:44:06;;;;;;;;;;;11.30;95.40;;;;;;5097214;28;20106;-64
2023/01/30 07:46:34;;;;;;;;;;;11.30;95.60;;;;;;5095992;28;20351;-65
2023/01/30 07:49:03;;;;;;;58.03;19.67;;;11.30;95.70;;;;;;5086552;28;19955;-65
2023/01/30 07:51:30;;;;;;;50.60;18.25;;;11.20;95.80;;;;;;5097591;28;20065;-64
2023/01/30 07:53:56;;;;;;;;;;;11.10;95.90;;;;;;5094558;28;20068;-63
2023/01/30 07:56:23;;;;;;;52.05;17.60;;;11.10;96.30;;;;;;5094005;28;20426;-63
2023/01/30 07:58:50;;;;;;;57.80;17.75;;;11.10;96.30;;;;;;5095563;28;20084;-65
2023/01/30 08:01:17;;;;;;;58.50;17.02;;;11.20;96.40;;;;;;5093040;28;20162;-65
2023/01/30 08:03:45;;;;;;;64.93;19.65;;;11.20;96.40;;;;;;5092175;28;20549;-65
2023/01/30 08:06:12;;;;;;;58.67;18.77;;;11.20;96.40;;;;;;5092917;28;20065;-64
2023/01/30 08:08:39;;;;;;;62.80;21.00;;;11.20;96.50;;;;;;5092098;28;20072;-62
2023/01/30 08:11:05;;;;;;;58.67;21.08;;;11.10;96.60;;;;;;5092113;28;20122;-64
2023/01/30 08:13:32;;;;;;;70.80;21.65;;;11.10;96.50;;;;;;5093868;28;20067;-64
2023/01/30 08:16:00;;;;;;;68.13;21.98;;;11.10;96.70;;;;;;5092487;28;20065;-62
2023/01/30 08:18:28;;;;;;;77.95;23.60;;;11.10;96.60;;;;;;5095883;28;20212;-64
2023/01/30 08:21:03;;;;;;;74.32;23.33;;;11.00;96.70;;;;;;5092040;28;20082;-63
2023/01/30 08:23:30;;;;;;;56.53;21.60;;;11.00;96.70;;;;;;5092793;28;20173;-65
2023/01/30 08:25:59;;;;;;;60.45;22.15;;;11.00;97.10;;;;;;5089800;28;20133;-62
2023/01/30 08:28:26;;;;;;;58.53;22.67;;;10.90;97.10;;;;;;5092046;28;20073;-64
2023/01/30 08:30:55;;;;;;;71.15;25.42;;;10.90;97.30;;;;;;5096088;28;20077;-63
2023/01/30 08:33:23;;;;;;;76.00;23.60;;;10.90;97.20;;;;;;5089718;28;20088;-65
2023/01/30 08:35:50;;;;;;;66.88;23.98;;;10.90;97.20;;;;;;5092694;28;20105;-64
2023/01/30 08:38:17;;;;;;;67.53;25.15;;;10.90;97.40;;;;;;5089765;28;20147;-64
2023/01/30 08:40:44;;;;;;;65.80;25.02;;;10.80;97.50;;;;;;5093433;28;20072;-63
2023/01/30 08:43:10;;;;;;;74.40;25.73;;;10.80;97.60;;;;;;5095514;28;20115;-65
2023/01/30 08:45:37;;;;;;;60.80;26.73;;;10.70;97.50;;;;;;5091120;28;20585;-63
2023/01/30 08:48:05;;;;;;;68.53;25.75;;;10.70;97.60;;;;;;5093252;28;20453;-65
2023/01/30 08:50:32;;;;;;;67.10;25.67;;;10.70;97.90;;;;;;5086474;28;20064;-64
2023/01/30 08:53:04;;;;;;;68.30;26.02;;;10.70;98.10;;;;;;5095173;28;20593;-64
2023/01/30 08:55:30;;;;;;;74.22;26.20;;;10.50;98.10;;;;;;5096432;28;20407;-64
2023/01/30 08:57:56;;;;;;;;;;;10.50;98.60;;;;;;5095819;28;20068;-64
2023/01/30 09:00:23;;;;;;;77.20;29.17;;;10.50;98.70;;;;;;5097264;28;20307;-62
2023/01/30 09:02:53;;;;;;;64.57;26.42;;;10.50;98.80;;;;;;5097073;28;20084;-63
2023/01/30 09:05:20;;;;;;;63.38;26.23;;;10.50;98.60;;;;;;5096590;28;20127;-64
2023/01/30 09:07:46;;;;;;;64.15;26.58;;;10.50;98.80;;;;;;5095572;28;20065;-64
2023/01/30 09:10:13;;;;;;;56.63;23.75;;;10.50;98.70;;;;;;5091606;28;20097;-65
2023/01/30 09:12:40;;;;;;;69.30;22.63;;;10.40;98.70;;;;;;5094609;28;20118;-63
2023/01/30 09:15:07;;;;;;;71.85;22.77;;;10.40;98.80;;;;;;5093667;28;20077;-65
2023/01/30 09:17:34;;;;;;;52.70;19.42;;;10.50;99.00;;;;;;5093054;28;20086;-65
2023/01/30 09:20:00;;;;;;;53.78;20.17;;;10.40;99.10;;;;;;5097538;28;20551;-66
2023/01/30 09:22:26;;;;;;;;;;;10.50;99.10;;;;;;5105048;28;20103;-65
2023/01/30 09:24:53;;;;;;;55.92;18.77;;;10.40;99.00;;;;;;5095732;28;19970;-64
2023/01/30 09:27:19;;;;;;;55.10;19.88;;;10.40;99.10;;;;;;5095979;28;20120;-61
2023/01/30 09:29:45;;;;;;;;;;;10.30;99.40;;;;;;5095876;28;20082;-63
2023/01/30 09:32:12;;;;;;;52.67;22.23;;;10.30;99.50;;;;;;5098319;28;19955;-65
2023/01/30 09:34:38;;;;;;;;;;;10.20;99.80;;;;;;5098936;28;21476;-62
2023/01/30 09:37:04;;;;;;;59.95;20.83;;;10.20;99.90;;;;;;5096239;28;19976;-65
2023/01/30 09:39:30;;;;;;;;;;;10.20;99.90;;;;;;5101005;28;20085;-65
2023/01/30 09:41:59;;;;;;;59.55;20.20;;;10.10;99.90;;;;;;5094685;28;20048;-65
2023/01/30 09:44:39;;;;;;;62.83;24.23;;;10.10;99.90;;;;;;5095548;28;20101;-64
2023/01/30 09:47:23;;;;;;;72.15;28.83;;;10.20;99.90;;;;;;5089813;28;20078;-66
2023/01/30 09:49:58;;;;;;;79.90;27.85;;;10.00;99.90;;;;;;5095360;28;20111;-65
2023/01/30 09:53:09;;;;;;;70.00;29.02;;;10.10;99.90;;;;;;5089866;28;20058;-65
2023/01/30 09:55:40;;;;;;;87.50;34.00;;;9.90;99.90;;;;;;5095558;28;20072;-65
2023/01/30 09:58:19;;;;;;;87.50;34.08;;;10.00;99.90;;;;;;5094743;28;20069;-62
2023/01/30 10:00:47;;;;;;;78.82;32.05;;;9.90;99.90;;;;;;5089071;28;20069;-63
2023/01/30 10:03:34;;;;;;;81.97;32.50;;;10.00;99.90;;;;;;5097762;28;20095;-65
2023/01/30 10:06:06;;;;;;;77.20;32.03;;;10.00;99.90;;;;;;5092333;28;20535;-64
2023/01/30 10:09:07;;;;;;;86.97;32.83;;;9.90;99.90;;;;;;5099604;28;20086;-64
2023/01/30 10:11:52;;;;;;;79.78;30.75;;;9.80;99.90;;;;;;5093959;28;20515;-65
2023/01/30 10:14:24;;;;;;;67.75;29.98;;;9.70;99.90;;;;;;5094891;28;20086;-63
2023/01/30 10:17:04;;;;;;;70.47;28.92;;;9.60;99.90;;;;;;5089094;28;20078;-63
2023/01/30 10:19:40;;;;;;;83.80;29.70;;;9.60;99.90;;;;;;5095416;28;20160;-64
2023/01/30 10:22:33;;;;;;;64.28;27.35;;;9.80;99.90;;;;;;5091790;28;20561;-62
2023/01/30 10:25:28;;;;;;;73.72;29.63;;;9.70;99.90;;;;;;5090990;28;20083;-65
2023/01/30 10:28:19;;;;;;;68.57;26.85;;;9.70;99.90;;;;;;5091135;28;20082;-63
2023/01/30 10:30:51;;;;;;;68.65;30.40;;;9.70;99.90;;;;;;5009777;28;20452;-64
2023/01/30 10:33:52;;;;;;;70.18;27.27;;;9.70;99.90;;;;;;5011032;28;20123;-64
2023/01/30 10:36:44;;;;;;;61.67;26.60;;;9.80;99.90;;;;;;5015136;28;20121;-63
2023/01/30 10:39:29;;;;;;;61.13;25.05;;;9.80;99.90;;;;;;5011150;28;20080;-64
2023/01/30 10:42:11;;;;;;;67.28;25.60;;;9.80;99.90;;;;;;5018364;28;20537;-62
2023/01/30 10:44:41;;;;;;;65.97;26.77;;;9.90;99.90;;;;;;5014222;28;20121;-63
2023/01/30 10:47:53;;;;;;;57.88;24.05;;;10.10;99.90;;;;;;5013895;28;20095;-63
2023/01/30 10:50:41;;;;;;;65.25;25.30;;;10.10;99.90;;;;;;5004776;28;20080;-65
2023/01/30 10:53:20;;;;;;;70.07;26.13;;;10.00;99.90;;;;;;5010056;28;20092;-64
2023/01/30 10:56:05;;;;;;;65.78;24.13;;;10.00;99.90;;;;;;5014061;28;20087;-64
2023/01/30 10:58:40;;;;;;;49.85;22.05;;;10.20;99.90;;;;;;5013370;28;20154;-65
2023/01/30 11:01:29;;;;;;;57.60;23.10;;;10.10;99.90;;;;;;5013262;28;20506;-64
2023/01/30 11:03:57;;;;;;;57.42;22.80;;;10.10;99.90;;;;;;5012917;28;20095;-64
2023/01/30 11:06:25;;;;;;;54.17;21.88;;;10.10;99.90;;;;;;5014967;28;20088;-64
2023/01/30 11:08:53;;;;;;;46.45;19.90;;;10.10;99.90;;;;;;5083544;28;20140;-64
2023/01/30 11:11:37;;;;;;;50.70;19.08;;;10.10;99.90;;;;;;5094365;28;20119;-65
2023/01/30 11:14:07;;;;;;;47.10;20.70;;;10.10;99.90;;;;;;5095396;28;20086;-65
2023/01/30 11:16:45;;;;;;;52.85;19.23;;;10.10;99.90;;;;;;5090174;28;20066;-64
2023/01/30 11:19:13;;;;;;;51.20;19.40;;;10.00;99.90;;;;;;5094268;28;20056;-66
2023/01/30 11:21:42;;;;;;;52.88;20.58;;;10.10;99.90;;;;;;5093770;28;20132;-64
2023/01/30 11:24:22;;;;;;;48.13;21.98;;;10.20;99.90;;;;;;5094577;28;20542;-64
2023/01/30 11:26:51;;;;;;;47.58;19.35;;;10.10;99.90;;;;;;5093384;28;20529;-64
2023/01/30 11:29:26;;;;;;;53.42;21.55;;;10.20;99.90;;;;;;5094235;28;20226;-64
2023/01/30 11:31:53;;;;;;;52.80;20.48;;;10.20;99.90;;;;;;5091296;28;20077;-64
2023/01/30 11:34:22;;;;;;;53.33;21.27;;;10.10;99.90;;;;;;5094467;28;20172;-62
2023/01/30 11:36:49;;;;;;;52.13;19.63;;;10.20;99.90;;;;;;5096311;28;20417;-65
2023/01/30 11:39:20;;;;;;;48.97;19.58;;;10.20;99.90;;;;;;5092278;28;20070;-63
2023/01/30 11:41:53;;;;;;;45.53;18.73;;;10.20;99.90;;;;;;5090192;28;20556;-63
2023/01/30 11:44:26;;;;;;;53.90;19.48;;;10.10;99.90;;;;;;5091285;28;20102;-64
2023/01/30 11:46:52;;;;;;;49.05;19.25;;;10.10;99.90;;;;;;5091975;28;20491;-64
2023/01/30 11:49:21;;;;;;;46.70;18.98;;;10.10;99.90;;;;;;5094144;28;20445;-63
2023/01/30 11:51:51;;;;;;;44.63;19.02;;;10.00;99.90;;;;;;5090869;28;20070;-64
2023/01/30 11:54:36;;;;;;;46.47;17.77;;;10.00;99.90;;;;;;5089353;28;20545;-65
2023/01/30 11:57:07;;;;;;;45.05;17.77;;;9.80;99.90;;;;;;5092243;28;20070;-64
2023/01/30 11:59:56;;;;;;;37.33;16.48;;;9.80;99.90;;;;;;5092374;28;20067;-64
2023/01/30 12:02:35;;;;;;;44.25;16.17;;;9.80;99.90;;;;;;5093763;28;20061;-64
2023/01/30 12:05:16;;;;;;;39.47;16.75;;;9.80;99.90;;;;;;5094184;28;20094;-62
2023/01/30 12:07:47;;;;;;;42.75;16.40;;;9.80;99.90;;;;;;5091948;28;20066;-64
2023/01/30 12:10:30;;;;;;;43.97;15.73;;;9.80;99.90;;;;;;5091207;28;20434;-62
2023/01/30 12:13:05;;;;;;;46.33;16.90;;;9.70;99.90;;;;;;5093419;28;20060;-63
2023/01/30 12:15:34;;;;;;;35.97;15.40;;;9.70;99.90;;;;;;5092987;28;20078;-64
2023/01/30 12:18:09;;;;;;;36.70;15.43;;;9.70;99.90;;;;;;5087947;28;20086;-64
2023/01/30 12:21:08;;;;;;;46.92;18.58;;;9.70;99.90;;;;;;5090908;28;20136;-62
2023/01/30 12:23:41;;;;;;;51.50;17.40;;;9.50;99.90;;;;;;5089767;28;20086;-64
2023/01/30 12:26:13;;;;;;;38.45;17.45;;;9.50;99.90;;;;;;5093212;28;21895;-64
2023/01/30 12:28:51;;;;;;;48.58;19.10;;;9.50;99.90;;;;;;5094549;28;20501;-63
2023/01/30 12:31:32;;;;;;;43.72;18.55;;;9.40;99.90;;;;;;5096387;28;20069;-64
2023/01/30 12:33:59;;;;;;;50.65;18.70;;;9.30;99.90;;;;;;5088821;28;20126;-64
2023/01/30 12:36:31;;;;;;;58.78;18.83;;;9.30;99.90;;;;;;5093901;28;20072;-65
2023/01/30 12:39:19;;;;;;;44.95;17.25;;;9.40;99.90;;;;;;5096884;28;20076;-64
2023/01/30 12:41:55;;;;;;;55.13;18.92;;;9.40;99.90;;;;;;5097006;28;20154;-66
2023/01/30 12:44:39;;;;;;;48.67;17.38;;;9.40;99.90;;;;;;5097434;28;20120;-66
2023/01/30 12:47:23;;;;;;;47.22;19.13;;;9.40;99.90;;;;;;5090650;28;20485;-64
2023/01/30 12:50:01;;;;;;;43.30;17.00;;;9.30;99.90;;;;;;5093750;28;20069;-63
2023/01/30 12:52:55;;;;;;;39.78;18.05;;;9.40;99.90;;;;;;5097980;28;20095;-63
2023/01/30 12:55:48;;;;;;;52.70;19.67;;;9.30;99.90;;;;;;5097847;28;20089;-64
2023/01/30 12:58:20;;;;;;;59.08;21.40;;;9.40;99.90;;;;;;5100470;28;20151;-64
2023/01/30 13:01:05;;;;;;;49.28;20.95;;;9.40;99.90;;;;;;5091683;28;20070;-64
2023/01/30 13:03:41;;;;;;;51.60;23.45;;;9.40;99.90;;;;;;5092834;28;20181;-64
2023/01/30 13:06:26;;;;;;;50.97;27.65;;;9.40;99.90;;;;;;5091734;28;20078;-64
2023/01/30 13:09:16;;;;;;;71.53;29.58;;;9.50;99.90;;;;;;5098394;28;20080;-63
2023/01/30 13:11:58;;;;;;;63.72;28.00;;;9.60;99.90;;;;;;5060168;28;20221;-62
2023/01/30 13:14:25;;;;;;;56.97;27.70;;;9.60;99.90;;;;;;5092522;28;20088;-65